sensor_id;sensor_type;location;lat;lon;timestamp;pressure;altitude;pressure_sealevel;temperature;humidity
57048;BME280;42934;54.294;18.598;2022-09-29T00:00:13;99098.25;;;9.47;79.13
57048;BME280;42934;54.294;18.598;2022-09-29T00:03:04;99088.69;;;9.46;79.16
57048;BME280;42934;54.294;18.598;2022-09-29T00:05:33;99100.03;;;9.46;79.22
57048;BME280;42934;54.294;18.598;2022-09-29T00:08:03;99097.56;;;9.43;78.93
57048;BME280;42934;54.294;18.598;2022-09-29T00:10:32;99094.25;;;9.40;79.28
57048;BME280;42934;54.294;18.598;2022-09-29T00:13:01;99098.72;;;9.38;79.37
57048;BME280;42934;54.294;18.598;2022-09-29T00:15:32;99092.59;;;9.39;79.45
57048;BME280;42934;54.294;18.598;2022-09-29T00:18:01;99094.34;;;9.38;79.43
57048;BME280;42934;54.294;18.598;2022-09-29T00:20:56;99088.41;;;9.35;79.33
57048;BME280;42934;54.294;18.598;2022-09-29T00:23:26;99093.91;;;9.30;79.38
57048;BME280;42934;54.294;18.598;2022-09-29T00:26:04;99098.38;;;9.28;79.24
57048;BME280;42934;54.294;18.598;2022-09-29T00:28:35;99102.00;;;9.25;79.55
57048;BME280;42934;54.294;18.598;2022-09-29T00:31:08;99094.13;;;9.25;79.61
57048;BME280;42934;54.294;18.598;2022-09-29T00:33:38;99100.38;;;9.23;79.52
57048;BME280;42934;54.294;18.598;2022-09-29T00:36:11;99095.31;;;9.20;79.78
57048;BME280;42934;54.294;18.598;2022-09-29T00:38:41;99092.78;;;9.18;79.91
57048;BME280;42934;54.294;18.598;2022-09-29T00:41:13;99086.81;;;9.15;79.95
57048;BME280;42934;54.294;18.598;2022-09-29T00:43:56;99087.69;;;9.15;79.96
57048;BME280;42934;54.294;18.598;2022-09-29T00:46:38;99087.44;;;9.20;80.27
57048;BME280;42934;54.294;18.598;2022-09-29T00:49:16;99083.06;;;9.20;80.08
57048;BME280;42934;54.294;18.598;2022-09-29T00:51:52;99085.75;;;9.19;80.31
57048;BME280;42934;54.294;18.598;2022-09-29T00:54:24;99085.75;;;9.19;80.06
57048;BME280;42934;54.294;18.598;2022-09-29T00:56:56;99092.53;;;9.23;79.82
57048;BME280;42934;54.294;18.598;2022-09-29T00:59:33;99090.00;;;9.21;80.03
57048;BME280;42934;54.294;18.598;2022-09-29T01:02:06;99090.31;;;9.15;80.23
57048;BME280;42934;54.294;18.598;2022-09-29T01:04:36;99087.88;;;9.12;80.54
57048;BME280;42934;54.294;18.598;2022-09-29T01:07:05;99095.72;;;9.12;80.56
57048;BME280;42934;54.294;18.598;2022-09-29T01:09:38;99096.13;;;9.20;80.36
57048;BME280;42934;54.294;18.598;2022-09-29T01:12:08;99102.78;;;9.27;80.30
57048;BME280;42934;54.294;18.598;2022-09-29T01:14:38;99099.06;;;9.31;80.01
57048;BME280;42934;54.294;18.598;2022-09-29T01:17:09;99098.16;;;9.32;79.82
57048;BME280;42934;54.294;18.598;2022-09-29T01:19:49;99093.97;;;9.28;80.02
57048;BME280;42934;54.294;18.598;2022-09-29T01:22:38;99096.44;;;9.31;79.55
57048;BME280;42934;54.294;18.598;2022-09-29T01:25:44;99096.53;;;9.30;79.75
57048;BME280;42934;54.294;18.598;2022-09-29T01:28:33;99098.31;;;9.29;79.73
57048;BME280;42934;54.294;18.598;2022-09-29T01:31:19;99099.00;;;9.33;79.70
57048;BME280;42934;54.294;18.598;2022-09-29T01:33:57;99095.22;;;9.39;79.72
57048;BME280;42934;54.294;18.598;2022-09-29T01:36:37;99108.13;;;9.42;79.57
57048;BME280;42934;54.294;18.598;2022-09-29T01:39:16;99103.59;;;9.45;79.48
57048;BME280;42934;54.294;18.598;2022-09-29T01:41:50;99108.03;;;9.43;79.41
57048;BME280;42934;54.294;18.598;2022-09-29T01:44:25;99107.19;;;9.43;79.61
57048;BME280;42934;54.294;18.598;2022-09-29T01:47:00;99116.06;;;9.40;79.54
57048;BME280;42934;54.294;18.598;2022-09-29T01:49:35;99113.38;;;9.42;79.38
57048;BME280;42934;54.294;18.598;2022-09-29T01:52:09;99113.38;;;9.42;79.82
57048;BME280;42934;54.294;18.598;2022-09-29T01:54:44;99115.91;;;9.43;79.91
57048;BME280;42934;54.294;18.598;2022-09-29T01:57:20;99118.28;;;9.48;79.99
57048;BME280;42934;54.294;18.598;2022-09-29T01:59:55;99119.91;;;9.50;80.14
57048;BME280;42934;54.294;18.598;2022-09-29T02:02:31;99118.91;;;9.53;79.87
57048;BME280;42934;54.294;18.598;2022-09-29T02:05:09;99122.19;;;9.57;79.97
57048;BME280;42934;54.294;18.598;2022-09-29T02:07:43;99124.88;;;9.55;79.72
57048;BME280;42934;54.294;18.598;2022-09-29T02:10:16;99123.97;;;9.56;79.93
57048;BME280;42934;54.294;18.598;2022-09-29T02:12:49;99123.81;;;9.59;79.65
57048;BME280;42934;54.294;18.598;2022-09-29T02:15:23;99123.97;;;9.56;79.71
57048;BME280;42934;54.294;18.598;2022-09-29T02:17:58;99124.28;;;9.50;79.63
57048;BME280;42934;54.294;18.598;2022-09-29T02:20:30;99127.47;;;9.39;79.84
57048;BME280;42934;54.294;18.598;2022-09-29T02:23:00;99126.22;;;9.46;80.21
57048;BME280;42934;54.294;18.598;2022-09-29T02:25:30;99120.81;;;9.49;80.40
57048;BME280;42934;54.294;18.598;2022-09-29T02:28:03;99131.13;;;9.52;79.97
57048;BME280;42934;54.294;18.598;2022-09-29T02:30:33;99119.75;;;9.53;79.98
57048;BME280;42934;54.294;18.598;2022-09-29T02:33:04;99118.03;;;9.52;79.86
57048;BME280;42934;54.294;18.598;2022-09-29T02:35:41;99115.56;;;9.49;79.54
57048;BME280;42934;54.294;18.598;2022-09-29T02:38:20;99130.63;;;9.46;79.83
57048;BME280;42934;54.294;18.598;2022-09-29T02:40:58;99124.69;;;9.42;79.97
57048;BME280;42934;54.294;18.598;2022-09-29T02:43:46;99130.44;;;9.49;80.22
57048;BME280;42934;54.294;18.598;2022-09-29T02:46:33;99128.25;;;9.41;80.08
57048;BME280;42934;54.294;18.598;2022-09-29T02:49:18;99125.53;;;9.43;80.08
57048;BME280;42934;54.294;18.598;2022-09-29T02:51:54;99131.78;;;9.40;80.20
57048;BME280;42934;54.294;18.598;2022-09-29T02:54:37;99128.31;;;9.40;80.33
57048;BME280;42934;54.294;18.598;2022-09-29T02:57:18;99137.44;;;9.32;80.38
57048;BME280;42934;54.294;18.598;2022-09-29T02:59:57;99146.53;;;9.25;80.69
57048;BME280;42934;54.294;18.598;2022-09-29T03:02:33;99135.50;;;9.36;80.46
57048;BME280;42934;54.294;18.598;2022-09-29T03:05:05;99132.03;;;9.36;80.54
57048;BME280;42934;54.294;18.598;2022-09-29T03:07:37;99132.63;;;9.41;80.49
57048;BME280;42934;54.294;18.598;2022-09-29T03:10:08;99135.78;;;9.47;80.16
57048;BME280;42934;54.294;18.598;2022-09-29T03:12:38;99140.94;;;9.49;80.17
57048;BME280;42934;54.294;18.598;2022-09-29T03:15:08;99145.09;;;9.53;80.01
57048;BME280;42934;54.294;18.598;2022-09-29T03:17:39;99140.53;;;9.57;79.92
57048;BME280;42934;54.294;18.598;2022-09-29T03:20:10;99148.25;;;9.60;79.85
57048;BME280;42934;54.294;18.598;2022-09-29T03:22:39;99145.69;;;9.58;79.75
57048;BME280;42934;54.294;18.598;2022-09-29T03:25:09;99145.53;;;9.61;79.65
57048;BME280;42934;54.294;18.598;2022-09-29T03:27:41;99146.38;;;9.62;79.79
57048;BME280;42934;54.294;18.598;2022-09-29T03:30:11;99148.09;;;9.63;79.43
57048;BME280;42934;54.294;18.598;2022-09-29T03:32:42;99146.31;;;9.63;79.51
57048;BME280;42934;54.294;18.598;2022-09-29T03:35:13;99143.69;;;9.63;79.68
57048;BME280;42934;54.294;18.598;2022-09-29T03:37:42;99148.09;;;9.63;79.70
57048;BME280;42934;54.294;18.598;2022-09-29T03:40:12;99144.63;;;9.62;79.58
57048;BME280;42934;54.294;18.598;2022-09-29T03:42:45;99142.16;;;9.59;79.73
57048;BME280;42934;54.294;18.598;2022-09-29T03:45:15;99149.16;;;9.59;79.64
57048;BME280;42934;54.294;18.598;2022-09-29T03:47:44;99155.16;;;9.61;79.74
57048;BME280;42934;54.294;18.598;2022-09-29T03:50:15;99153.47;;;9.60;79.79
57048;BME280;42934;54.294;18.598;2022-09-29T03:52:44;99155.31;;;9.58;79.92
57048;BME280;42934;54.294;18.598;2022-09-29T03:55:13;99159.56;;;9.60;79.80
57048;BME280;42934;54.294;18.598;2022-09-29T03:57:43;99164.72;;;9.62;79.64
57048;BME280;42934;54.294;18.598;2022-09-29T04:00:14;99160.41;;;9.61;79.90
57048;BME280;42934;54.294;18.598;2022-09-29T04:02:43;99161.72;;;9.52;79.69
57048;BME280;42934;54.294;18.598;2022-09-29T04:05:14;99168.69;;;9.53;79.77
57048;BME280;42934;54.294;18.598;2022-09-29T04:07:45;99171.31;;;9.53;79.79
57048;BME280;42934;54.294;18.598;2022-09-29T04:10:14;99166.06;;;9.53;79.80
57048;BME280;42934;54.294;18.598;2022-09-29T04:12:43;99158.28;;;9.51;79.96
57048;BME280;42934;54.294;18.598;2022-09-29T04:15:13;99165.91;;;9.56;79.82
57048;BME280;42934;54.294;18.598;2022-09-29T04:17:42;99166.75;;;9.57;79.95
57048;BME280;42934;54.294;18.598;2022-09-29T04:20:11;99168.38;;;9.59;79.93
57048;BME280;42934;54.294;18.598;2022-09-29T04:22:42;99166.59;;;9.60;80.01
57048;BME280;42934;54.294;18.598;2022-09-29T04:25:11;99163.88;;;9.61;79.82
57048;BME280;42934;54.294;18.598;2022-09-29T04:27:41;99166.59;;;9.60;79.63
57048;BME280;42934;54.294;18.598;2022-09-29T04:30:11;99166.59;;;9.60;79.61
57048;BME280;42934;54.294;18.598;2022-09-29T04:32:40;99170.13;;;9.59;79.93
57048;BME280;42934;54.294;18.598;2022-09-29T04:35:09;99171.22;;;9.54;80.06
57048;BME280;42934;54.294;18.598;2022-09-29T04:37:39;99177.56;;;9.50;80.07
57048;BME280;42934;54.294;18.598;2022-09-29T04:40:10;99181.78;;;9.53;80.05
57048;BME280;42934;54.294;18.598;2022-09-29T04:42:39;99176.63;;;9.51;79.89
57048;BME280;42934;54.294;18.598;2022-09-29T04:45:09;99180.88;;;9.37;80.52
57048;BME280;42934;54.294;18.598;2022-09-29T04:47:38;99179.41;;;9.31;80.78
57048;BME280;42934;54.294;18.598;2022-09-29T04:50:08;99194.97;;;9.34;80.89
57048;BME280;42934;54.294;18.598;2022-09-29T04:52:40;99192.88;;;9.23;80.92
57048;BME280;42934;54.294;18.598;2022-09-29T04:55:11;99192.44;;;9.32;80.65
57048;BME280;42934;54.294;18.598;2022-09-29T04:57:41;99194.44;;;9.27;80.67
57048;BME280;42934;54.294;18.598;2022-09-29T05:00:12;99195.50;;;9.23;80.90
57048;BME280;42934;54.294;18.598;2022-09-29T05:02:42;99198.06;;;9.25;80.99
57048;BME280;42934;54.294;18.598;2022-09-29T05:05:16;99194.28;;;9.30;80.97
57048;BME280;42934;54.294;18.598;2022-09-29T05:07:46;99200.38;;;9.31;80.61
57048;BME280;42934;54.294;18.598;2022-09-29T05:10:16;99198.53;;;9.33;80.75
57048;BME280;42934;54.294;18.598;2022-09-29T05:12:49;99205.22;;;9.39;80.46
57048;BME280;42934;54.294;18.598;2022-09-29T05:15:19;99199.00;;;9.41;80.40
57048;BME280;42934;54.294;18.598;2022-09-29T05:17:53;99206.91;;;9.40;80.47
57048;BME280;42934;54.294;18.598;2022-09-29T05:20:22;99210.31;;;9.42;80.64
57048;BME280;42934;54.294;18.598;2022-09-29T05:22:51;99213.53;;;9.47;80.38
57048;BME280;42934;54.294;18.598;2022-09-29T05:25:22;99210.84;;;9.48;80.28
57048;BME280;42934;54.294;18.598;2022-09-29T05:27:51;99212.00;;;9.43;80.59
57048;BME280;42934;54.294;18.598;2022-09-29T05:30:20;99211.69;;;9.49;80.44
57048;BME280;42934;54.294;18.598;2022-09-29T05:32:50;99209.16;;;9.47;80.54
57048;BME280;42934;54.294;18.598;2022-09-29T05:35:25;99212.34;;;9.52;80.55
57048;BME280;42934;54.294;18.598;2022-09-29T05:37:55;99213.91;;;9.57;80.31
57048;BME280;42934;54.294;18.598;2022-09-29T05:40:25;99213.06;;;9.56;80.27
57048;BME280;42934;54.294;18.598;2022-09-29T05:42:54;99210.53;;;9.54;80.23
57048;BME280;42934;54.294;18.598;2022-09-29T05:45:26;99213.13;;;9.54;80.60
57048;BME280;42934;54.294;18.598;2022-09-29T05:47:55;99213.91;;;9.57;80.23
57048;BME280;42934;54.294;18.598;2022-09-29T05:50:25;99209.50;;;9.57;80.46
57048;BME280;42934;54.294;18.598;2022-09-29T05:52:54;99219.84;;;9.60;80.54
57048;BME280;42934;54.294;18.598;2022-09-29T05:55:25;99219.75;;;9.62;80.58
57048;BME280;42934;54.294;18.598;2022-09-29T05:57:54;99222.78;;;9.54;80.82
57048;BME280;42934;54.294;18.598;2022-09-29T06:00:24;99221.16;;;9.51;81.42
57048;BME280;42934;54.294;18.598;2022-09-29T06:03:00;99227.19;;;9.53;81.59
57048;BME280;42934;54.294;18.598;2022-09-29T06:05:31;99226.25;;;9.54;81.68
57048;BME280;42934;54.294;18.598;2022-09-29T06:08:00;99231.00;;;9.64;81.02
57048;BME280;42934;54.294;18.598;2022-09-29T06:10:32;99235.34;;;9.65;81.44
57048;BME280;42934;54.294;18.598;2022-09-29T06:13:02;99235.75;;;9.73;81.12
57048;BME280;42934;54.294;18.598;2022-09-29T06:15:33;99236.22;;;9.81;80.99
57048;BME280;42934;54.294;18.598;2022-09-29T06:18:06;99244.75;;;9.85;81.10
57048;BME280;42934;54.294;18.598;2022-09-29T06:20:40;99247.00;;;9.92;80.86
57048;BME280;42934;54.294;18.598;2022-09-29T06:23:11;99251.63;;;9.87;80.92
57048;BME280;42934;54.294;18.598;2022-09-29T06:25:42;99254.19;;;9.89;81.09
57048;BME280;42934;54.294;18.598;2022-09-29T06:28:11;99259.00;;;9.96;80.89
57048;BME280;42934;54.294;18.598;2022-09-29T06:30:40;99262.25;;;10.01;80.64
57048;BME280;42934;54.294;18.598;2022-09-29T06:33:11;99273.50;;;10.04;80.71
57048;BME280;42934;54.294;18.598;2022-09-29T06:35:45;99280.28;;;10.08;80.55
57048;BME280;42934;54.294;18.598;2022-09-29T06:38:32;99270.63;;;10.08;80.71
57048;BME280;42934;54.294;18.598;2022-09-29T06:41:03;99271.47;;;10.09;80.68
57048;BME280;42934;54.294;18.598;2022-09-29T06:43:33;99283.50;;;10.13;80.56
57048;BME280;42934;54.294;18.598;2022-09-29T06:46:03;99286.19;;;10.11;80.59
57048;BME280;42934;54.294;18.598;2022-09-29T06:48:33;99280.28;;;10.08;80.92
57048;BME280;42934;54.294;18.598;2022-09-29T06:51:05;99287.81;;;10.14;81.16
57048;BME280;42934;54.294;18.598;2022-09-29T06:53:37;99289.28;;;10.19;80.80
57048;BME280;42934;54.294;18.598;2022-09-29T06:56:09;99285.97;;;10.16;80.90
57048;BME280;42934;54.294;18.598;2022-09-29T06:58:38;99290.44;;;10.14;81.38
57048;BME280;42934;54.294;18.598;2022-09-29T07:01:08;99280.88;;;10.13;81.22
57048;BME280;42934;54.294;18.598;2022-09-29T07:03:39;99288.59;;;10.16;81.40
57048;BME280;42934;54.294;18.598;2022-09-29T07:06:09;99291.06;;;10.19;81.09
57048;BME280;42934;54.294;18.598;2022-09-29T07:08:46;99291.22;;;10.16;81.25
57048;BME280;42934;54.294;18.598;2022-09-29T07:11:17;99287.31;;;10.23;81.54
57048;BME280;42934;54.294;18.598;2022-09-29T07:13:47;99281.78;;;10.29;81.02
57048;BME280;42934;54.294;18.598;2022-09-29T07:16:22;99287.75;;;10.33;80.97
57048;BME280;42934;54.294;18.598;2022-09-29T07:18:51;99280.88;;;10.30;80.85
57048;BME280;42934;54.294;18.598;2022-09-29T07:21:21;99290.53;;;10.30;81.11
57048;BME280;42934;54.294;18.598;2022-09-29T07:23:50;99296.47;;;10.33;80.87
57048;BME280;42934;54.294;18.598;2022-09-29T07:26:21;99301.53;;;10.36;81.18
57048;BME280;42934;54.294;18.598;2022-09-29T07:28:50;99296.03;;;10.41;80.92
57048;BME280;42934;54.294;18.598;2022-09-29T07:31:20;99305.50;;;10.43;81.15
57048;BME280;42934;54.294;18.598;2022-09-29T07:33:50;99306.13;;;10.49;80.86
57048;BME280;42934;54.294;18.598;2022-09-29T07:36:20;99310.53;;;10.48;81.01
57048;BME280;42934;54.294;18.598;2022-09-29T07:38:50;99309.34;;;10.54;80.83
57048;BME280;42934;54.294;18.598;2022-09-29T07:41:22;99297.13;;;10.53;80.63
57048;BME280;42934;54.294;18.598;2022-09-29T07:43:51;99307.75;;;10.67;80.77
57048;BME280;42934;54.294;18.598;2022-09-29T07:46:21;99312.81;;;10.70;80.87
57048;BME280;42934;54.294;18.598;2022-09-29T07:48:50;99324.59;;;10.79;80.71
57048;BME280;42934;54.294;18.598;2022-09-29T07:51:19;99314.78;;;10.82;80.60
57048;BME280;42934;54.294;18.598;2022-09-29T07:53:49;99323.19;;;10.89;80.38
57048;BME280;42934;54.294;18.598;2022-09-29T07:56:21;99328.88;;;10.97;80.12
57048;BME280;42934;54.294;18.598;2022-09-29T07:58:51;99334.00;;;10.99;80.34
57048;BME280;42934;54.294;18.598;2022-09-29T08:01:20;99323.00;;;11.08;80.44
57048;BME280;42934;54.294;18.598;2022-09-29T08:03:51;99327.56;;;11.20;80.13
57048;BME280;42934;54.294;18.598;2022-09-29T08:06:22;99327.19;;;11.26;79.96
57048;BME280;42934;54.294;18.598;2022-09-29T08:08:52;99335.97;;;11.27;79.23
57048;BME280;42934;54.294;18.598;2022-09-29T08:11:36;99338.06;;;11.36;79.57
57048;BME280;42934;54.294;18.598;2022-09-29T08:14:07;99343.72;;;11.44;79.49
57048;BME280;42934;54.294;18.598;2022-09-29T08:16:37;99341.66;;;11.49;78.81
57048;BME280;42934;54.294;18.598;2022-09-29T08:19:07;99340.41;;;11.56;78.75
57048;BME280;42934;54.294;18.598;2022-09-29T08:21:38;99354.19;;;11.60;78.41
57048;BME280;42934;54.294;18.598;2022-09-29T08:24:08;99347.75;;;11.66;78.51
57048;BME280;42934;54.294;18.598;2022-09-29T08:26:39;99350.84;;;11.72;78.33
57048;BME280;42934;54.294;18.598;2022-09-29T08:29:13;99350.44;;;11.80;78.45
57048;BME280;42934;54.294;18.598;2022-09-29T08:31:44;99350.94;;;11.87;77.86
57048;BME280;42934;54.294;18.598;2022-09-29T08:34:14;99347.19;;;11.91;77.73
57048;BME280;42934;54.294;18.598;2022-09-29T08:36:45;99360.91;;;11.96;77.54
57048;BME280;42934;54.294;18.598;2022-09-29T08:39:14;99356.81;;;12.06;77.58
57048;BME280;42934;54.294;18.598;2022-09-29T08:41:51;99358.91;;;12.15;77.16
57048;BME280;42934;54.294;18.598;2022-09-29T08:44:29;99370.53;;;12.25;77.18
57048;BME280;42934;54.294;18.598;2022-09-29T08:47:14;99369.25;;;12.33;76.67
57048;BME280;42934;54.294;18.598;2022-09-29T08:49:48;99374.22;;;12.37;76.37
57048;BME280;42934;54.294;18.598;2022-09-29T08:52:23;99382.50;;;12.45;76.33
57048;BME280;42934;54.294;18.598;2022-09-29T08:54:58;99384.88;;;12.50;75.53
57048;BME280;42934;54.294;18.598;2022-09-29T08:57:48;99387.13;;;12.56;75.13
57048;BME280;42934;54.294;18.598;2022-09-29T09:00:19;99385.22;;;12.58;75.24
57048;BME280;42934;54.294;18.598;2022-09-29T09:03:07;99399.72;;;12.65;74.68
57048;BME280;42934;54.294;18.598;2022-09-29T09:05:57;99397.38;;;12.75;75.08
57048;BME280;42934;54.294;18.598;2022-09-29T09:08:46;99394.16;;;12.84;74.87
57048;BME280;42934;54.294;18.598;2022-09-29T09:11:29;99400.84;;;12.90;74.23
57048;BME280;42934;54.294;18.598;2022-09-29T09:14:12;99404.88;;;12.95;74.00
57048;BME280;42934;54.294;18.598;2022-09-29T09:16:53;99399.69;;;12.94;74.24
57048;BME280;42934;54.294;18.598;2022-09-29T09:19:46;99402.72;;;13.02;74.09
57048;BME280;42934;54.294;18.598;2022-09-29T09:22:23;99400.84;;;13.04;73.24
57048;BME280;42934;54.294;18.598;2022-09-29T09:24:58;99415.69;;;13.05;73.06
57048;BME280;42934;54.294;18.598;2022-09-29T09:27:34;99410.72;;;13.15;73.03
57048;BME280;42934;54.294;18.598;2022-09-29T09:30:12;99418.31;;;13.19;72.68
57048;BME280;42934;54.294;18.598;2022-09-29T09:32:47;99420.09;;;13.19;72.35
57048;BME280;42934;54.294;18.598;2022-09-29T09:35:29;99419.16;;;13.20;72.03
57048;BME280;42934;54.294;18.598;2022-09-29T09:38:03;99425.25;;;13.21;72.21
57048;BME280;42934;54.294;18.598;2022-09-29T09:40:38;99419.66;;;13.27;72.14
57048;BME280;42934;54.294;18.598;2022-09-29T09:43:13;99420.13;;;13.33;72.15
57048;BME280;42934;54.294;18.598;2022-09-29T09:45:53;99419.06;;;13.36;71.78
57048;BME280;42934;54.294;18.598;2022-09-29T09:48:29;99433.75;;;13.40;71.33
57048;BME280;42934;54.294;18.598;2022-09-29T09:51:01;99430.44;;;13.51;71.22
57048;BME280;42934;54.294;18.598;2022-09-29T09:53:39;99429.59;;;13.50;70.71
57048;BME280;42934;54.294;18.598;2022-09-29T09:56:16;99429.72;;;13.61;71.16
57048;BME280;42934;54.294;18.598;2022-09-29T09:59:07;99442.25;;;13.58;70.64
57048;BME280;42934;54.294;18.598;2022-09-29T10:01:43;99433.59;;;13.56;70.39
57048;BME280;42934;54.294;18.598;2022-09-29T10:04:13;99443.81;;;13.48;70.25
57048;BME280;42934;54.294;18.598;2022-09-29T10:06:42;99443.13;;;13.44;70.36
57048;BME280;42934;54.294;18.598;2022-09-29T10:09:13;99440.78;;;13.54;70.70
57048;BME280;42934;54.294;18.598;2022-09-29T10:11:43;99447.94;;;13.52;70.22
57048;BME280;42934;54.294;18.598;2022-09-29T10:14:20;99446.69;;;13.57;70.29
57048;BME280;42934;54.294;18.598;2022-09-29T10:16:55;99454.53;;;13.59;69.84
57048;BME280;42934;54.294;18.598;2022-09-29T10:19:56;99451.78;;;13.60;69.52
57048;BME280;42934;54.294;18.598;2022-09-29T10:22:27;99469.50;;;13.44;69.08
57048;BME280;42934;54.294;18.598;2022-09-29T10:25:06;99464.34;;;13.43;69.33
57048;BME280;42934;54.294;18.598;2022-09-29T10:27:40;99466.22;;;13.40;69.51
57048;BME280;42934;54.294;18.598;2022-09-29T10:30:21;99470.47;;;13.43;69.60
57048;BME280;42934;54.294;18.598;2022-09-29T10:32:56;99479.88;;;13.47;69.83
57048;BME280;42934;54.294;18.598;2022-09-29T10:35:31;99469.94;;;13.65;69.45
57048;BME280;42934;54.294;18.598;2022-09-29T10:38:03;99487.94;;;13.58;68.92
57048;BME280;42934;54.294;18.598;2022-09-29T10:40:34;99484.56;;;13.56;66.92
57048;BME280;42934;54.294;18.598;2022-09-29T10:43:21;99483.53;;;13.59;67.26
57048;BME280;42934;54.294;18.598;2022-09-29T10:45:52;99486.41;;;13.69;68.08
57048;BME280;42934;54.294;18.598;2022-09-29T10:48:27;99488.06;;;13.84;68.20
57048;BME280;42934;54.294;18.598;2022-09-29T10:50:58;99489.06;;;13.69;68.40
57048;BME280;42934;54.294;18.598;2022-09-29T10:53:35;99491.53;;;13.57;67.35
57048;BME280;42934;54.294;18.598;2022-09-29T10:56:13;99493.97;;;13.60;67.99
57048;BME280;42934;54.294;18.598;2022-09-29T10:58:50;99501.44;;;13.54;67.68
57048;BME280;42934;54.294;18.598;2022-09-29T11:01:34;99504.25;;;13.51;68.19
57048;BME280;42934;54.294;18.598;2022-09-29T11:04:17;99504.63;;;13.59;66.26
57048;BME280;42934;54.294;18.598;2022-09-29T11:06:48;99506.72;;;13.54;67.07
57048;BME280;42934;54.294;18.598;2022-09-29T11:09:36;99508.78;;;13.49;67.63
57048;BME280;42934;54.294;18.598;2022-09-29T11:12:27;99510.41;;;13.78;67.52
57048;BME280;42934;54.294;18.598;2022-09-29T11:14:56;99493.53;;;13.81;67.32
57048;BME280;42934;54.294;18.598;2022-09-29T11:17:27;99513.66;;;13.69;67.21
57048;BME280;42934;54.294;18.598;2022-09-29T11:20:01;99517.13;;;13.70;67.44
57048;BME280;42934;54.294;18.598;2022-09-29T11:23:00;99520.13;;;14.05;67.22
57048;BME280;42934;54.294;18.598;2022-09-29T11:31:59;99526.16;;;15.12;64.62
57048;BME280;42934;54.294;18.598;2022-09-29T11:34:56;99534.94;;;15.38;63.72
57048;BME280;42934;54.294;18.598;2022-09-29T11:37:53;99536.19;;;15.33;63.26
57048;BME280;42934;54.294;18.598;2022-09-29T11:40:31;99538.28;;;15.40;62.71
57048;BME280;42934;54.294;18.598;2022-09-29T11:43:16;99541.69;;;15.17;63.73
57048;BME280;42934;54.294;18.598;2022-09-29T11:45:58;99532.31;;;15.00;64.43
57048;BME280;42934;54.294;18.598;2022-09-29T11:49:08;99538.00;;;15.19;62.68
57048;BME280;42934;54.294;18.598;2022-09-29T11:51:56;99547.28;;;15.38;63.26
57048;BME280;42934;54.294;18.598;2022-09-29T11:54:43;99546.84;;;15.44;61.76
57048;BME280;42934;54.294;18.598;2022-09-29T11:57:20;99546.75;;;15.71;62.34
57048;BME280;42934;54.294;18.598;2022-09-29T12:00:04;99542.25;;;15.84;61.61
57048;BME280;42934;54.294;18.598;2022-09-29T12:03:10;99538.38;;;16.01;60.87
57048;BME280;42934;54.294;18.598;2022-09-29T12:05:54;99545.78;;;16.09;60.95
57048;BME280;42934;54.294;18.598;2022-09-29T12:08:40;99539.13;;;16.27;61.07
57048;BME280;42934;54.294;18.598;2022-09-29T12:11:19;99545.34;;;16.26;60.90
57048;BME280;42934;54.294;18.598;2022-09-29T12:14:15;99549.25;;;16.09;61.31
57048;BME280;42934;54.294;18.598;2022-09-29T12:16:52;99556.31;;;15.85;60.87
57048;BME280;42934;54.294;18.598;2022-09-29T12:19:26;99556.59;;;15.69;61.70
57048;BME280;42934;54.294;18.598;2022-09-29T12:22:00;99561.66;;;15.59;62.05
57048;BME280;42934;54.294;18.598;2022-09-29T12:24:34;99560.19;;;15.42;62.01
57048;BME280;42934;54.294;18.598;2022-09-29T12:27:09;99557.44;;;15.31;62.43
57048;BME280;42934;54.294;18.598;2022-09-29T12:29:43;99563.38;;;15.22;62.76
57048;BME280;42934;54.294;18.598;2022-09-29T12:32:17;99565.69;;;15.14;62.30
57048;BME280;42934;54.294;18.598;2022-09-29T12:34:50;99573.22;;;15.07;62.86
57048;BME280;42934;54.294;18.598;2022-09-29T12:37:22;99569.19;;;15.14;62.42
57048;BME280;42934;54.294;18.598;2022-09-29T12:40:00;99563.38;;;15.22;62.36
57048;BME280;42934;54.294;18.598;2022-09-29T12:43:00;99570.16;;;15.13;61.77
57048;BME280;42934;54.294;18.598;2022-09-29T12:45:36;99572.28;;;15.21;62.18
57048;BME280;42934;54.294;18.598;2022-09-29T12:48:33;99563.50;;;15.33;61.90
57048;BME280;42934;54.294;18.598;2022-09-29T12:51:12;99569.69;;;15.58;61.81
57048;BME280;42934;54.294;18.598;2022-09-29T12:53:58;99569.59;;;15.72;61.31
57048;BME280;42934;54.294;18.598;2022-09-29T12:56:33;99571.13;;;15.87;60.95
57048;BME280;42934;54.294;18.598;2022-09-29T12:59:08;99570.13;;;15.77;60.66
57048;BME280;42934;54.294;18.598;2022-09-29T13:01:41;99565.19;;;15.97;60.55
57048;BME280;42934;54.294;18.598;2022-09-29T13:04:35;99576.84;;;15.94;60.43
57048;BME280;42934;54.294;18.598;2022-09-29T13:07:38;99567.44;;;16.14;60.33
57048;BME280;42934;54.294;18.598;2022-09-29T13:10:28;99570.31;;;16.11;59.25
57048;BME280;42934;54.294;18.598;2022-09-29T13:16:16;99569.09;;;16.04;59.60
57048;BME280;42934;54.294;18.598;2022-09-29T13:22:28;99569.38;;;16.12;59.28
57048;BME280;42934;54.294;18.598;2022-09-29T13:25:06;99572.88;;;16.12;59.29
57048;BME280;42934;54.294;18.598;2022-09-29T13:27:43;99573.25;;;16.19;58.93
57048;BME280;42934;54.294;18.598;2022-09-29T13:30:16;99583.75;;;16.21;58.58
57048;BME280;42934;54.294;18.598;2022-09-29T13:32:49;99577.03;;;16.28;58.77
57048;BME280;42934;54.294;18.598;2022-09-29T13:35:22;99581.03;;;16.33;58.32
57048;BME280;42934;54.294;18.598;2022-09-29T13:37:56;99576.75;;;16.44;58.63
57048;BME280;42934;54.294;18.598;2022-09-29T13:40:31;99577.03;;;16.52;57.73
57048;BME280;42934;54.294;18.598;2022-09-29T13:43:02;99585.19;;;16.49;57.36
57048;BME280;42934;54.294;18.598;2022-09-29T13:45:42;99579.28;;;16.45;56.95
57048;BME280;42934;54.294;18.598;2022-09-29T13:48:36;99587.56;;;16.41;57.50